createdAt,value
2022-12-19T00:01:32.461Z,-8.02
2022-12-19T00:04:00.459Z,-8.05
2022-12-19T00:06:27.614Z,-8.07
2022-12-19T00:08:54.423Z,-8.08
2022-12-19T00:11:21.371Z,-8.10
2022-12-19T00:13:48.023Z,-8.07
2022-12-19T00:16:18.837Z,-8.04
2022-12-19T00:18:46.487Z,-8.06
2022-12-19T00:21:14.919Z,-8.05
2022-12-19T00:23:41.612Z,-8.03
2022-12-19T00:26:08.911Z,-7.96
2022-12-19T00:28:35.637Z,-7.96
2022-12-19T00:31:03.119Z,-7.94
2022-12-19T00:33:30.016Z,-7.94
2022-12-19T00:36:01.175Z,-7.93
2022-12-19T00:38:27.874Z,-7.92
2022-12-19T00:40:54.574Z,-7.92
2022-12-19T00:43:21.730Z,-7.91
2022-12-19T00:45:48.402Z,-7.88
2022-12-19T00:48:16.046Z,-7.84
2022-12-19T00:50:45.964Z,-7.81
2022-12-19T00:53:13.676Z,-7.79
2022-12-19T00:55:40.271Z,-7.78
2022-12-19T00:58:06.916Z,-7.76
2022-12-19T01:00:33.657Z,-7.71
2022-12-19T01:03:00.333Z,-7.67
2022-12-19T01:05:29.317Z,-7.64
2022-12-19T01:07:55.973Z,-7.65
2022-12-19T01:10:23.494Z,-7.63
2022-12-19T01:14:45.162Z,-7.57
2022-12-19T01:17:11.934Z,-7.59
2022-12-19T01:19:43.575Z,-7.61
2022-12-19T01:22:12.397Z,-7.63
2022-12-19T01:24:39.083Z,-7.61
2022-12-19T01:27:05.717Z,-7.58
2022-12-19T01:29:32.801Z,-7.56
2022-12-19T01:32:01.319Z,-7.53
2022-12-19T01:34:31.656Z,-7.53
2022-12-19T01:36:58.357Z,-7.53
2022-12-19T01:39:25.838Z,-7.50
2022-12-19T01:41:55.773Z,-7.49
2022-12-19T01:44:24.130Z,-7.47
2022-12-19T01:46:52.780Z,-7.44
2022-12-19T01:49:30.768Z,-7.42
2022-12-19T01:51:59.159Z,-7.42
2022-12-19T01:54:29.612Z,-7.40
2022-12-19T01:56:57.469Z,-7.39
2022-12-19T01:59:27.542Z,-7.38
2022-12-19T02:01:56.623Z,-7.38
2022-12-19T02:04:25.290Z,-7.35
2022-12-19T02:06:52.311Z,-7.32
2022-12-19T02:09:19.256Z,-7.32
2022-12-19T02:11:46.094Z,-7.30
2022-12-19T02:14:12.922Z,-7.30
2022-12-19T02:16:47.585Z,-7.29
2022-12-19T02:19:33.545Z,-7.28
2022-12-19T02:22:16.114Z,-7.28
2022-12-19T02:25:07.430Z,-7.26
2022-12-19T02:27:46.049Z,-7.24
2022-12-19T02:30:16.377Z,-7.22
2022-12-19T02:32:48.710Z,-7.20
2022-12-19T02:35:29.450Z,-7.20
2022-12-19T02:38:42.016Z,-7.20
2022-12-19T02:41:13.265Z,-7.14
2022-12-19T02:43:41.795Z,-7.09
2022-12-19T02:46:08.819Z,-7.10
2022-12-19T02:48:35.559Z,-7.10
2022-12-19T02:51:03.087Z,-7.08
2022-12-19T02:53:31.997Z,-7.06
2022-12-19T02:56:05.613Z,-7.05
2022-12-19T02:58:49.923Z,-7.02
2022-12-19T03:01:41.667Z,-7.01
2022-12-19T03:04:14.695Z,-6.98
2022-12-19T03:06:49.151Z,-6.96
2022-12-19T03:09:52.988Z,-6.93
2022-12-19T03:12:30.777Z,-6.91
2022-12-19T03:14:57.635Z,-6.91
2022-12-19T03:17:25.725Z,-6.89
2022-12-19T03:19:52.405Z,-6.82
2022-12-19T03:22:19.038Z,-6.78
2022-12-19T03:24:46.095Z,-6.74
2022-12-19T03:27:42.224Z,-6.70
2022-12-19T03:30:11.274Z,-6.66
2022-12-19T03:32:38.678Z,-6.63
2022-12-19T03:35:17.245Z,-6.57
2022-12-19T03:37:43.970Z,-6.54
2022-12-19T03:40:16.375Z,-6.52
2022-12-19T03:43:01.699Z,-6.53
2022-12-19T03:45:54.674Z,-6.51
2022-12-19T03:48:45.394Z,-6.45
2022-12-19T03:51:18.488Z,-6.41
2022-12-19T03:54:07.039Z,-6.38
2022-12-19T03:57:07.694Z,-6.31
2022-12-19T03:59:57.526Z,-6.20
2022-12-19T04:02:24.263Z,-6.09
2022-12-19T04:04:58.775Z,-6.01
2022-12-19T04:07:26.054Z,-5.95
2022-12-19T04:09:52.706Z,-5.91
2022-12-19T04:12:21.764Z,-5.86
2022-12-19T04:14:48.442Z,-5.83
2022-12-19T04:17:24.908Z,-5.81
2022-12-19T04:19:56.437Z,-5.78
2022-12-19T04:22:36.068Z,-5.76
2022-12-19T04:25:03.803Z,-5.70
2022-12-19T04:27:34.430Z,-5.68
2022-12-19T04:30:01.153Z,-5.67
2022-12-19T04:32:27.867Z,-5.63
2022-12-19T04:34:54.542Z,-5.57
2022-12-19T04:37:21.224Z,-5.51
2022-12-19T04:39:47.890Z,-5.48
2022-12-19T04:42:14.541Z,-5.51
2022-12-19T04:44:41.225Z,-5.52
2022-12-19T04:47:07.900Z,-5.54
2022-12-19T04:49:34.636Z,-5.56
2022-12-19T04:52:01.311Z,-5.56
2022-12-19T04:54:28.005Z,-5.52
2022-12-19T04:56:55.382Z,-5.51
2022-12-19T04:59:22.012Z,-5.51
2022-12-19T05:01:48.737Z,-5.55
2022-12-19T05:04:15.489Z,-5.53
2022-12-19T05:06:42.137Z,-5.48
2022-12-19T05:09:10.417Z,-5.44
2022-12-19T05:11:37.232Z,-5.42
2022-12-19T05:14:03.886Z,-5.41
2022-12-19T05:16:30.589Z,-5.41
2022-12-19T05:18:57.291Z,-5.42
2022-12-19T05:21:24.074Z,-5.42
2022-12-19T05:23:51.250Z,-5.40
2022-12-19T05:26:17.980Z,-5.39
2022-12-19T05:28:44.624Z,-5.38
2022-12-19T05:31:15.655Z,-5.38
2022-12-19T05:33:42.595Z,-5.38
2022-12-19T05:36:10.067Z,-5.40
2022-12-19T05:38:36.885Z,-5.39
2022-12-19T05:41:11.152Z,-5.36
2022-12-19T05:43:37.781Z,-5.32
2022-12-19T05:46:05.193Z,-5.31
2022-12-19T05:48:31.865Z,-5.28
2022-12-19T05:50:58.565Z,-5.26
2022-12-19T05:53:27.491Z,-5.25
2022-12-19T05:56:11.900Z,-5.24
2022-12-19T05:58:39.102Z,-5.21
2022-12-19T06:01:11.343Z,-5.20
2022-12-19T06:03:38.053Z,-5.13
2022-12-19T06:06:05.662Z,-5.09
2022-12-19T06:08:32.384Z,-5.06
2022-12-19T06:11:03.221Z,-5.04
2022-12-19T06:13:29.942Z,-5.02
2022-12-19T06:16:04.151Z,-5.01
2022-12-19T06:18:31.080Z,-5.01
2022-12-19T06:21:02.633Z,-5.02
2022-12-19T06:23:30.320Z,-4.99
2022-12-19T06:25:57.791Z,-5.00
2022-12-19T06:28:25.007Z,-5.05
2022-12-19T06:30:51.734Z,-5.07
2022-12-19T06:33:18.515Z,-5.04
2022-12-19T06:35:45.143Z,-5.02
2022-12-19T06:38:11.838Z,-5.00
2022-12-19T06:41:03.278Z,-4.96
2022-12-19T06:43:30.055Z,-4.90
2022-12-19T06:45:57.023Z,-4.86
2022-12-19T06:48:23.846Z,-4.81
2022-12-19T06:50:50.391Z,-4.77
2022-12-19T06:53:17.045Z,-4.75
2022-12-19T06:55:48.642Z,-4.73
2022-12-19T06:58:17.339Z,-4.72
2022-12-19T07:00:46.926Z,-4.74
2022-12-19T07:03:14.161Z,-4.76
2022-12-19T07:05:40.863Z,-4.80
2022-12-19T07:08:10.839Z,-4.82
2022-12-19T07:10:37.628Z,-4.82
2022-12-19T07:13:04.623Z,-4.82
2022-12-19T07:15:31.980Z,-4.81
2022-12-19T07:17:59.597Z,-4.78
2022-12-19T07:20:26.272Z,-4.73
2022-12-19T07:22:53.827Z,-4.69
2022-12-19T07:25:20.535Z,-4.66
2022-12-19T07:27:47.481Z,-4.65
2022-12-19T07:30:14.200Z,-4.65
2022-12-19T07:32:40.917Z,-4.65
2022-12-19T07:35:08.096Z,-4.74
2022-12-19T07:37:34.865Z,-4.71
2022-12-19T07:40:01.590Z,-4.72
2022-12-19T07:42:32.464Z,-4.74
2022-12-19T07:45:01.435Z,-4.74
2022-12-19T07:47:28.203Z,-4.79
2022-12-19T07:49:54.843Z,-4.75
2022-12-19T07:52:21.612Z,-4.74
2022-12-19T07:54:48.307Z,-4.73
2022-12-19T07:57:14.940Z,-4.71
2022-12-19T07:59:41.603Z,-4.72
2022-12-19T08:02:08.435Z,-4.72
2022-12-19T08:04:35.127Z,-4.76
2022-12-19T08:07:02.437Z,-4.79
2022-12-19T08:09:29.227Z,-4.81
2022-12-19T08:11:55.849Z,-4.82
2022-12-19T08:14:22.527Z,-4.82
2022-12-19T08:17:19.296Z,-4.83
2022-12-19T08:19:35.964Z,-4.83
2022-12-19T08:22:02.649Z,-4.87
2022-12-19T08:24:30.882Z,-4.84
2022-12-19T08:26:57.661Z,-4.83
2022-12-19T08:29:24.242Z,-4.84
2022-12-19T08:31:51.028Z,-4.84
2022-12-19T08:34:17.712Z,-4.84
2022-12-19T08:36:44.355Z,-4.82
2022-12-19T08:39:11.269Z,-4.79
2022-12-19T08:41:38.074Z,-4.77
2022-12-19T08:44:04.799Z,-4.73
2022-12-19T08:46:31.547Z,-4.68
2022-12-19T08:48:58.449Z,-4.63
2022-12-19T08:51:27.120Z,-4.62
2022-12-19T08:53:53.860Z,-4.58
2022-12-19T08:56:21.717Z,-4.59
2022-12-19T08:58:48.605Z,-4.61
2022-12-19T09:01:16.328Z,-4.55
2022-12-19T09:04:11.484Z,-4.52
2022-12-19T09:06:29.800Z,-4.46
2022-12-19T09:09:00.149Z,-4.40
2022-12-19T09:11:27.330Z,-4.32
2022-12-19T09:13:55.553Z,-4.27
2022-12-19T09:16:22.795Z,-4.21
2022-12-19T09:18:51.048Z,-4.19
2022-12-19T09:21:18.957Z,-4.10
2022-12-19T09:23:53.530Z,-4.04
2022-12-19T09:26:21.237Z,-3.98
2022-12-19T09:28:49.829Z,-3.92
2022-12-19T09:31:18.544Z,-3.90
2022-12-19T09:33:45.302Z,-3.92
2022-12-19T09:36:16.214Z,-3.93
2022-12-19T09:38:43.131Z,-3.95
2022-12-19T09:41:24.458Z,-3.98
2022-12-19T09:44:11.975Z,-3.97
2022-12-19T09:46:57.649Z,-3.92
2022-12-19T09:49:43.319Z,-3.88
2022-12-19T09:52:33.400Z,-3.84
2022-12-19T09:55:04.944Z,-3.80
2022-12-19T09:57:41.002Z,-3.79
2022-12-19T10:00:13.908Z,-3.82
2022-12-19T10:03:00.658Z,-3.86
2022-12-19T10:06:47.837Z,-3.89
2022-12-19T10:10:36.276Z,-3.91
2022-12-19T10:12:39.410Z,-3.91
2022-12-19T10:14:36.708Z,-3.88
2022-12-19T10:17:24.582Z,-3.82
2022-12-19T10:20:16.671Z,-3.74
2022-12-19T10:23:08.585Z,-3.64
2022-12-19T10:25:37.445Z,-3.56
2022-12-19T10:28:24.417Z,-3.49
2022-12-19T10:31:09.054Z,-3.39
2022-12-19T10:33:47.557Z,-3.30
2022-12-19T10:36:15.559Z,-3.23
2022-12-19T10:38:58.318Z,-3.22
2022-12-19T10:41:27.972Z,-3.30
2022-12-19T10:44:05.791Z,-3.31
2022-12-19T10:46:49.208Z,-3.33
2022-12-19T10:49:17.750Z,-3.32
2022-12-19T10:52:05.311Z,-3.33
2022-12-19T10:54:38.422Z,-3.33
2022-12-19T10:57:24.575Z,-3.30
2022-12-19T11:00:15.279Z,-3.23
2022-12-19T11:02:45.541Z,-3.16
2022-12-19T11:05:27.198Z,-3.12
2022-12-19T11:08:06.192Z,-3.07
2022-12-19T11:12:19.498Z,-3.04
2022-12-19T11:19:25.179Z,-2.93
2022-12-19T11:21:46.317Z,-2.85
2022-12-19T11:29:39.119Z,-2.78
2022-12-19T11:29:46.487Z,-2.71
2022-12-19T11:30:08.857Z,-2.66
2022-12-19T11:30:35.460Z,-2.60
2022-12-19T17:48:54.619Z,-6.06
2022-12-19T17:51:21.966Z,-5.92
2022-12-19T17:53:49.855Z,-5.89
2022-12-19T17:56:17.634Z,-5.82
2022-12-19T17:58:44.321Z,-5.79
2022-12-19T18:01:21.337Z,-5.77
2022-12-19T18:03:48.816Z,-5.74
2022-12-19T18:06:15.706Z,-5.71
2022-12-19T18:08:42.301Z,-5.67
2022-12-19T18:11:20.918Z,-5.65
2022-12-19T18:13:47.754Z,-5.64
2022-12-19T18:16:15.026Z,-5.62
2022-12-19T18:18:41.763Z,-5.61
2022-12-19T18:21:17.753Z,-5.61
2022-12-19T18:23:44.502Z,-5.60
2022-12-19T18:26:11.542Z,-5.59
2022-12-19T18:28:39.123Z,-5.58
2022-12-19T18:31:25.615Z,-5.59
2022-12-19T18:33:52.902Z,-5.60
2022-12-19T18:36:24.326Z,-5.61
2022-12-19T18:38:51.305Z,-5.62
2022-12-19T18:41:18.307Z,-5.63
2022-12-19T18:43:45.113Z,-5.63
2022-12-19T18:46:12.554Z,-5.64
2022-12-19T18:48:39.295Z,-5.64
2022-12-19T18:51:06.068Z,-5.65
2022-12-19T18:53:35.503Z,-5.67
2022-12-19T18:56:03.154Z,-5.68
2022-12-19T18:58:29.856Z,-5.68
2022-12-19T19:00:59.386Z,-5.68
2022-12-19T19:03:29.163Z,-5.68
2022-12-19T19:05:56.025Z,-5.69
2022-12-19T19:08:23.991Z,-5.69
2022-12-19T19:10:59.946Z,-5.68
2022-12-19T19:13:26.906Z,-5.69
2022-12-19T19:15:56.475Z,-5.67
2022-12-19T19:18:29.892Z,-5.68
2022-12-19T19:21:01.068Z,-5.66
2022-12-19T19:23:30.231Z,-5.67
2022-12-19T19:25:57.058Z,-5.68
2022-12-19T19:28:23.679Z,-5.70
2022-12-19T19:30:50.797Z,-5.71
2022-12-19T19:33:19.348Z,-5.72
2022-12-19T19:35:46.741Z,-5.72
2022-12-19T19:38:13.501Z,-5.72
2022-12-19T19:40:40.146Z,-5.73
2022-12-19T19:43:07.157Z,-5.73
2022-12-19T19:45:38.149Z,-5.74
2022-12-19T19:48:10.305Z,-5.75
2022-12-19T19:50:37.140Z,-5.76
2022-12-19T19:53:04.297Z,-5.76
2022-12-19T19:55:31.528Z,-5.77
2022-12-19T19:57:58.405Z,-5.78
2022-12-19T20:00:25.297Z,-5.79
2022-12-19T20:02:52.859Z,-5.79
2022-12-19T20:05:23.022Z,-5.81
2022-12-19T20:07:49.881Z,-5.82
2022-12-19T20:10:16.737Z,-5.86
2022-12-19T20:30:09.088Z,-5.71
2022-12-19T20:32:36.032Z,-5.70
2022-12-19T20:35:02.717Z,-5.75
2022-12-19T20:37:29.671Z,-5.80
2022-12-19T20:39:56.494Z,-5.83
2022-12-19T20:42:23.199Z,-5.86
2022-12-19T20:44:49.893Z,-5.88
2022-12-19T20:47:16.573Z,-5.91
2022-12-19T20:49:44.520Z,-5.93
2022-12-19T20:52:11.683Z,-5.92
2022-12-19T20:54:38.520Z,-5.90
2022-12-19T20:57:05.331Z,-5.88
2022-12-19T20:59:32.013Z,-5.88
2022-12-19T21:02:00.659Z,-5.88
2022-12-19T21:04:27.514Z,-5.89
2022-12-19T21:06:54.577Z,-5.90
2022-12-19T21:09:21.196Z,-5.90
2022-12-19T21:11:47.922Z,-5.91
2022-12-19T21:14:14.576Z,-5.92
2022-12-19T21:16:41.356Z,-5.93
2022-12-19T21:19:08.732Z,-5.94
2022-12-19T21:21:35.454Z,-5.94
2022-12-19T21:24:02.337Z,-5.96
2022-12-19T21:26:29.001Z,-5.96
2022-12-19T21:28:58.020Z,-5.97
2022-12-19T21:31:26.347Z,-5.97
2022-12-19T21:34:00.206Z,-5.97
2022-12-19T21:36:27.747Z,-5.97
2022-12-19T21:38:56.588Z,-5.97
2022-12-19T21:41:23.567Z,-5.97
2022-12-19T21:43:53.554Z,-5.98
2022-12-19T21:46:25.352Z,-6.00
2022-12-19T21:48:53.609Z,-6.03
2022-12-19T21:51:21.537Z,-6.04
2022-12-19T21:53:48.534Z,-6.06
2022-12-19T21:56:20.238Z,-6.06
2022-12-19T21:58:47.039Z,-6.06
2022-12-19T22:01:13.847Z,-6.06
2022-12-19T22:03:40.803Z,-6.03
2022-12-19T22:06:08.866Z,-6.00
2022-12-19T22:08:36.449Z,-5.98
2022-12-19T22:11:03.201Z,-5.93
2022-12-19T22:13:29.924Z,-5.89
2022-12-19T22:16:01.487Z,-5.84
2022-12-19T22:18:28.214Z,-5.80
2022-12-19T22:20:57.319Z,-5.75
2022-12-19T22:23:24.001Z,-5.71
2022-12-19T22:25:53.069Z,-5.69
2022-12-19T22:28:19.706Z,-5.67
2022-12-19T22:30:46.999Z,-5.65
2022-12-19T22:33:13.691Z,-5.64
2022-12-19T22:35:40.443Z,-5.62
2022-12-19T22:38:07.104Z,-5.61
2022-12-19T22:40:34.417Z,-5.59
2022-12-19T22:43:01.120Z,-5.59
2022-12-19T22:45:30.502Z,-5.57
2022-12-19T22:47:57.208Z,-5.56
2022-12-19T22:50:23.910Z,-5.57
2022-12-19T22:52:50.558Z,-5.58
2022-12-19T22:55:17.448Z,-5.56
2022-12-19T22:57:44.029Z,-5.55
2022-12-19T23:00:13.554Z,-5.56
2022-12-19T23:02:43.972Z,-5.57
2022-12-19T23:05:10.896Z,-5.55
2022-12-19T23:07:37.566Z,-5.53
2022-12-19T23:10:04.628Z,-5.52
2022-12-19T23:12:31.320Z,-5.51
2022-12-19T23:14:58.150Z,-5.50
2022-12-19T23:17:24.775Z,-5.49
2022-12-19T23:19:51.423Z,-5.47
2022-12-19T23:22:18.229Z,-5.45
2022-12-19T23:24:44.878Z,-5.43
2022-12-19T23:27:11.540Z,-5.41
2022-12-19T23:29:38.213Z,-5.40
2022-12-19T23:32:05.247Z,-5.39
2022-12-19T23:34:31.975Z,-5.39
2022-12-19T23:37:10.837Z,-5.37
2022-12-19T23:39:38.183Z,-5.37
2022-12-19T23:42:04.924Z,-5.39
2022-12-19T23:44:31.786Z,-5.40
2022-12-19T23:47:02.935Z,-5.42
2022-12-19T23:49:30.531Z,-5.45
2022-12-19T23:51:57.175Z,-5.48
2022-12-19T23:54:23.964Z,-5.53
2022-12-19T23:56:51.492Z,-5.57
2022-12-19T23:59:18.289Z,-5.59
